Terminal Aerodrome Forecast
Issued by NWS Twin Cities, MN

Home | Current Version | Previous Version | Graphics & Text | Print | Product List | Glossary On
Versions: 1 2 3 4 5 6 7 8 9 10 11 12 13 14 15 16 17 18 19 20
026
FTUS43 KMPX 210250 AAA
TAFMSP
TAF AMD
KMSP 210250Z 2103/2206 34008KT P6SM SCT035
     FM210600 33006KT P6SM BKN035
     FM211400 34010KT P6SM FEW040
     FM212200 02008KT P6SM SKC=

USA.gov is the U.S. government's official web portal to all federal, state and local government web resources and services.